Ridgecrest, CA

7:15 PM PDT on August 03, 2015 (GMT -0700)
APRSWXNET | | Change Station
CLOSE
Current Station
Personal Weather Station
Location: Ridgecrest, CA
Elevation: 2391 ft
Nearby Weather Stations

Elev 2391 ft 35.60 °N, 117.70 °W | Updated 26 minutes ago

Clear
Clear
98 °F
Feels Like 93 °F
N
8
Wind Variable Wind from West
Gusts 18.0 mph

Today
High -- | Low -- °F
--% Chance of Precip.
Yesterday
High -- | Low -- °F
Precip. -- in
6:00 AM 7:53 PM
Waning Gibbous, 82% visible
Pressure 29.73 in
Visibility 10.0 miles
Clouds Scattered Clouds 25000 ft
Heat Index 93 °F
Dew Point 23 °F
Humidity 7%
Rainfall in
Snow Depth Not available.
UV 0 out of 12
Pollen 5.60 out of 12
Air Quality Not available.
Flu Activity Not available.
METAR KNID 040156Z 22010KT 10SM SCT250 37/M04 A2980 RMK AO2 SLP065 T03721039 $

More Conditions Fewer Conditions

Pressure 29.73 in
Visibility 10.0 miles
Clouds Scattered Clouds 25000 ft
Heat Index 93 °F
Dew Point 23 °F
Humidity 7%
Rainfall in
Snow Depth Not available.
UV 0 out of 12
Pollen 5.60 out of 12
Air Quality Not available.
Flu Activity Not available.
METAR KNID 040156Z 22010KT 10SM SCT250 37/M04 A2980 RMK AO2 SLP065 T03721039 $

More Conditions Fewer Conditions

10-Day Weather Forecast

×

Almanac

Astronomy

Aug. 03, 2015 Rise Set
Actual Time
Civil Twilight
Nautical Twilight
Astronomical Twilight
Moon
Length of Visible Light
Length of Day
Tomorrow will be .
, % of the Moon is Illuminated

Today's Extremes

State Highs State Lows

Community

WunderPhotos

Upload Photos

1,843,831 photos uploaded!

WunderBlogs® & News

Nearby

Air Quality

  Air Quality AQ Index Pollutant
Not available.

Snow Depth

Station Depth Elevation

Earthquake Activity

City Distance Mag. Time & Date
Minimum magnitude displayed is 2.5.

Coastal Water Temperatures

Place Temperature

Stations

Nearby Weather Stations

Station Location Temp. Windchill Dew Point Humidity Wind Precip. Elev Updated Type